Terminal Aerodrome Forecast
Issued by NWS

Home | Current Version | Previous Version | Text Only | Print | Product List | Glossary On
Versions: 1 2 3 4 5 6 7 8 9 10 11
021
FTUS42 KMLB 300520
TAFISM
TAF
KISM 300520Z 3006/3106 VRB03KT P6SM FEW050 FEW100
     FM301500 17008KT P6SM SCT050
     FM310000 16006KT P6SM SCT050 SCT100=

USA.gov is the U.S. government's official web portal to all federal, state and local government web resources and services.